Time;durP1;ratioP1;P1;durP2;ratioP2;P2;SDS_P1;SDS_P2;PMS_P1;PMS_P2;Temp;Humidity;BMP_temperature;BMP_pressure;BME280_temperature;BME280_humidity;BME280_pressure;Samples;Min_cycle;Max_cycle;Signal;HPM_P1;HPM_P2
2022/05/21 00:02:11;;;;;;;;;;;;;;;23.49;46.71;101224.34;4914906;29;19915;-77
2022/05/21 00:04:56;;;;;;;;;;;;;;;23.47;47.05;101215.59;4906795;29;19916;-77
2022/05/21 00:07:42;;;;;;;;;;;;;;;23.49;47.11;101223.56;4898861;29;19919;-79
2022/05/21 00:10:28;;;;;;;;;;;;;;;23.51;47.77;101222.00;4899181;29;19915;-79
2022/05/21 00:13:12;;;;;;;;;;;;;;;23.77;47.68;101215.34;4913774;29;19923;-78
2022/05/21 00:15:57;;;;;;;;;;;;;;;23.68;47.83;101214.88;4911922;29;19916;-79
2022/05/21 00:18:42;;;;;;;;;;;;;;;23.61;46.69;101221.22;4913842;29;20389;-77
2022/05/21 00:21:26;;;;;;;;;;;;;;;23.14;48.18;101219.41;4913596;29;19915;-77
2022/05/21 00:24:12;;;;;;;;;;;;;;;23.24;47.87;101218.66;4898447;29;19919;-79
2022/05/21 00:26:56;;;;;;;;;;;;;;;23.25;47.81;101219.47;4897732;29;20370;-77
2022/05/21 00:29:41;;;;;;;;;;;;;;;23.36;48.68;101214.75;4913795;29;19915;-77
2022/05/21 00:32:26;;;;;;;;;;;;;;;23.64;48.02;101214.88;4901634;29;20382;-77
2022/05/21 00:35:10;;;;;;;;;;;;;;;23.49;47.33;101216.03;4899149;29;19916;-77
2022/05/21 00:37:55;;;;;;;;;;;;;;;23.38;47.64;101212.38;4913356;29;19982;-78
2022/05/21 00:40:40;;;;;;;;;;;;;;;23.38;47.85;101217.94;4906394;29;19915;-76
2022/05/21 00:43:52;;;;;;;;;;;;;;;23.31;48.01;101213.16;4905573;29;19916;-77
2022/05/21 00:46:38;;;;;;;;;;;;;;;23.37;47.40;101206.03;4900844;29;19915;-77
2022/05/21 00:49:28;;;;;;;;;;;;;;;23.26;48.23;101199.63;4898199;29;19923;-78
2022/05/21 00:52:12;;;;;;;;;;;;;;;23.17;47.59;101198.41;4893728;29;19919;-78
2022/05/21 00:54:58;;;;;;;;;;;;;;;23.24;48.38;101190.13;4899515;29;19915;-78
2022/05/21 00:57:46;;;;;;;;;;;;;;;23.13;48.92;101189.25;4910393;29;19919;-77
2022/05/21 01:00:30;;;;;;;;;;;;;;;22.99;48.93;101184.44;4914443;29;20366;-78
2022/05/21 01:03:15;;;;;;;;;;;;;;;22.82;49.37;101185.91;4899479;29;19915;-77
2022/05/21 01:06:03;;;;;;;;;;;;;;;22.85;49.95;101185.16;4916275;29;20386;-77
2022/05/21 01:08:47;;;;;;;;;;;;;;;23.15;48.82;101193.25;4899723;29;19928;-76
2022/05/21 01:11:32;;;;;;;;;;;;;;;23.43;48.28;101189.78;4901513;29;19919;-77
2022/05/21 01:14:20;;;;;;;;;;;;;;;23.59;47.84;101176.41;4902105;29;19915;-78
2022/05/21 01:17:05;;;;;;;;;;;;;;;23.32;47.78;101175.06;4897819;29;19919;-77
2022/05/21 01:20:00;;;;;;;;;;;;;;;23.19;48.00;101168.28;4912453;29;19915;-77
2022/05/21 01:22:46;;;;;;;;;;;;;;;23.37;48.08;101167.16;4915787;29;19919;-77
2022/05/21 01:25:31;;;;;;;;;;;;;;;23.23;47.53;101167.13;4914396;29;19915;-77
2022/05/21 01:28:19;;;;;;;;;;;;;;;23.10;47.59;101162.31;4897123;29;19916;-76
2022/05/21 01:31:06;;;;;;;;;;;;;;;22.98;48.97;101158.69;4915684;29;19916;-78
2022/05/21 01:33:51;;;;;;;;;;;;;;;22.88;48.40;101153.88;4908019;29;19915;-78
2022/05/21 01:36:36;;;;;;;;;;;;;;;22.83;48.44;101148.69;4911833;29;19919;-79
2022/05/21 01:39:21;;;;;;;;;;;;;;;22.82;48.27;101147.09;4910232;29;19919;-76
2022/05/21 01:42:05;;;;;;;;;;;;;;;22.95;47.95;101150.34;5010948;23;19923;-72
2022/05/21 01:44:52;;;;;;;;;;;;;;;22.86;48.22;101145.13;4935449;29;19914;-72
2022/05/21 01:47:41;;;;;;;;;;;;;;;22.81;48.80;101136.38;4942667;29;20513;-72
2022/05/21 01:50:26;;;;;;;;;;;;;;;22.74;48.46;101134.38;4917250;29;19915;-72
2022/05/21 01:53:11;;;;;;;;;;;;;;;22.83;47.88;101134.81;4929114;29;19915;-72
2022/05/21 01:55:57;;;;;;;;;;;;;;;22.96;47.29;101124.97;4934349;29;19915;-73
2022/05/21 01:58:42;;;;;;;;;;;;;;;22.95;46.72;101112.31;4936697;29;19918;-73
2022/05/21 02:01:28;;;;;;;;;;;;;;;22.97;46.93;101120.22;4935160;29;19915;-73
2022/05/21 02:04:13;;;;;;;;;;;;;;;22.96;47.41;101122.19;4934475;29;19914;-73
2022/05/21 02:06:57;;;;;;;;;;;;;;;23.05;46.90;101119.09;4934957;29;19914;-72
2022/05/21 02:09:41;;;;;;;;;;;;;;;23.26;47.60;101123.94;4934119;29;19919;-73
2022/05/21 02:12:27;;;;;;;;;;;;;;;23.28;46.94;101124.31;4924261;29;19915;-73
2022/05/21 02:15:13;;;;;;;;;;;;;;;23.09;46.51;101121.88;4931441;29;20516;-73
2022/05/21 02:17:58;;;;;;;;;;;;;;;23.08;47.20;101120.28;4927601;29;19919;-73
2022/05/21 02:20:42;;;;;;;;;;;;;;;23.27;47.56;101117.97;4925893;29;19919;-74
2022/05/21 02:23:27;;;;;;;;;;;;;;;23.41;47.11;101125.56;4938167;29;19922;-74
2022/05/21 02:26:12;;;;;;;;;;;;;;;23.28;46.62;101125.09;4936418;29;19915;-74
2022/05/21 02:28:57;;;;;;;;;;;;;;;23.25;46.77;101116.78;4934715;29;19915;-74
2022/05/21 02:31:42;;;;;;;;;;;;;;;23.16;46.30;101113.59;4935534;29;19941;-73
2022/05/21 02:34:26;;;;;;;;;;;;;;;23.27;46.88;101123.50;4923589;29;20374;-74
2022/05/21 02:40:15;;;;;;;;;;;;;;;22.94;47.00;101121.81;4933665;29;20370;-73
2022/05/21 02:42:59;;;;;;;;;;;;;;;23.05;47.56;101126.63;4934630;29;19914;-74
2022/05/21 02:45:46;;;;;;;;;;;;;;;23.13;46.64;101122.66;4934111;29;19914;-74
2022/05/21 02:48:31;;;;;;;;;;;;;;;23.33;47.17;101121.94;4935287;29;19914;-74
2022/05/21 02:51:15;;;;;;;;;;;;;;;23.41;46.38;101112.47;4936033;29;20373;-74
2022/05/21 02:54:01;;;;;;;;;;;;;;;23.22;46.17;101114.75;4928164;29;19914;-74
2022/05/21 02:56:49;;;;;;;;;;;;;;;23.10;45.87;101121.50;4931457;29;20021;-73
2022/05/21 02:59:34;;;;;;;;;;;;;;;23.21;46.69;101116.75;4928123;29;19915;-73
2022/05/21 03:02:19;;;;;;;;;;;;;;;23.39;46.89;101108.50;4926663;29;20309;-73
2022/05/21 03:05:04;;;;;;;;;;;;;;;23.51;46.36;101101.81;4938047;29;20001;-73
2022/05/21 03:07:50;;;;;;;;;;;;;;;23.50;46.61;101108.53;4933073;29;19914;-73
2022/05/21 03:10:34;;;;;;;;;;;;;;;23.18;46.25;101106.44;4928899;29;19915;-73
2022/05/21 03:13:19;;;;;;;;;;;;;;;23.22;46.67;101106.44;4925726;29;19918;-73
2022/05/21 03:16:04;;;;;;;;;;;;;;;22.93;46.40;101109.13;4919480;29;19916;-73
2022/05/21 03:18:48;;;;;;;;;;;;;;;22.85;47.02;101113.06;4928665;29;19927;-73
2022/05/21 03:21:33;;;;;;;;;;;;;;;22.97;46.79;101118.25;4936598;29;19915;-73
2022/05/21 03:24:17;;;;;;;;;;;;;;;23.10;46.40;101115.13;4945610;29;19940;-74
2022/05/21 03:27:02;;;;;;;;;;;;;;;22.83;45.91;101107.09;4940692;29;19914;-73
2022/05/21 03:29:46;;;;;;;;;;;;;;;22.98;47.34;101117.06;4952903;28;19914;-73
2022/05/21 03:32:30;;;;;;;;;;;;;;;22.82;46.17;101108.28;4945966;28;19915;-74
2022/05/21 03:35:16;;;;;;;;;;;;;;;22.62;47.24;101104.16;4930724;29;19915;-74
2022/05/21 03:38:02;;;;;;;;;;;;;;;22.61;48.32;101110.91;4925563;29;19919;-73
2022/05/21 03:40:47;;;;;;;;;;;;;;;22.73;47.97;101118.13;4940631;29;19915;-73
2022/05/21 03:43:32;;;;;;;;;;;;;;;22.62;46.94;101106.94;4938053;29;19914;-74
2022/05/21 03:46:16;;;;;;;;;;;;;;;22.41;47.19;101110.38;4937224;29;20293;-74
2022/05/21 03:49:00;;;;;;;;;;;;;;;22.43;47.90;101118.31;4938170;29;19914;-74
2022/05/21 03:51:45;;;;;;;;;;;;;;;22.46;47.81;101117.53;4939607;29;19915;-74
2022/05/21 03:54:29;;;;;;;;;;;;;;;22.36;47.52;101115.47;4937641;29;19915;-74
2022/05/21 03:57:15;;;;;;;;;;;;;;;22.22;48.07;101113.41;4936296;29;19918;-74
2022/05/21 04:00:00;;;;;;;;;;;;;;;22.10;48.32;101110.94;4927836;29;19914;-74
2022/05/21 04:02:46;;;;;;;;;;;;;;;22.09;48.16;101121.25;4929404;29;19923;-74
2022/05/21 04:05:31;;;;;;;;;;;;;;;22.07;48.58;101109.75;4941134;29;20377;-73
2022/05/21 04:08:16;;;;;;;;;;;;;;;21.84;49.42;101098.03;4939604;29;20293;-74
2022/05/21 04:11:01;;;;;;;;;;;;;;;21.91;48.96;101111.16;4937158;29;19929;-73
2022/05/21 04:13:46;;;;;;;;;;;;;;;21.74;48.87;101102.28;4941173;29;20324;-73
2022/05/21 04:16:30;;;;;;;;;;;;;;;21.60;49.63;101104.94;4926973;29;19914;-73
2022/05/21 04:19:14;;;;;;;;;;;;;;;21.66;49.74;101103.41;4934823;29;19919;-73
2022/05/21 04:21:59;;;;;;;;;;;;;;;21.63;49.72;101103.38;4943461;29;19914;-73
2022/05/21 04:24:43;;;;;;;;;;;;;;;21.65;49.66;101103.78;4957582;28;19918;-73
2022/05/21 04:27:27;;;;;;;;;;;;;;;21.65;50.05;101099.03;4956554;28;19914;-73
2022/05/21 04:30:16;;;;;;;;;;;;;;;21.70;50.10;101103.44;4955503;29;20288;-74
2022/05/21 04:33:01;;;;;;;;;;;;;;;21.65;50.17;101089.94;4958634;28;19915;-74
2022/05/21 04:38:51;;;;;;;;;;;;;;;21.96;49.98;101110.81;4932093;29;20381;-74
2022/05/21 04:41:36;;;;;;;;;;;;;;;22.17;49.62;101095.19;4929494;29;19914;-74
2022/05/21 04:44:20;;;;;;;;;;;;;;;22.16;49.79;101090.81;4937531;28;20398;-74
2022/05/21 04:47:05;;;;;;;;;;;;;;;22.44;49.35;101095.75;4933348;28;19923;-74
2022/05/21 04:49:50;;;;;;;;;;;;;;;22.65;48.89;101097.88;4948586;28;19914;-73
2022/05/21 04:52:34;;;;;;;;;;;;;;;22.64;49.00;101096.28;4938286;29;19915;-73
2022/05/21 04:55:19;;;;;;;;;;;;;;;22.74;48.80;101101.13;4939319;29;19918;-74
2022/05/21 04:58:03;;;;;;;;;;;;;;;22.85;48.92;101095.63;4926525;29;19923;-74
2022/05/21 05:00:48;;;;;;;;;;;;;;;22.60;49.75;101095.47;4931179;29;19914;-74
2022/05/21 05:03:32;;;;;;;;;;;;;;;22.53;49.78;101095.41;4926055;29;20413;-73
2022/05/21 05:06:17;;;;;;;;;;;;;;;22.69;49.29;101103.44;4931873;28;19915;-73
2022/05/21 05:09:02;;;;;;;;;;;;;;;22.83;49.31;101104.31;4934012;29;19915;-74
2022/05/21 05:11:47;;;;;;;;;;;;;;;22.82;49.80;101094.41;4955323;28;19914;-74
2022/05/21 05:14:31;;;;;;;;;;;;;;;22.86;49.42;101092.44;4952640;28;19914;-74
2022/05/21 05:17:16;;;;;;;;;;;;;;;22.95;48.90;101087.34;4946929;28;19993;-74
2022/05/21 05:20:01;;;;;;;;;;;;;;;22.80;49.24;101077.38;4933645;28;19944;-74
2022/05/21 05:22:45;;;;;;;;;;;;;;;22.84;49.28;101078.19;4930001;29;19918;-74
2022/05/21 05:25:30;;;;;;;;;;;;;;;22.92;49.39;101088.09;4928251;29;19914;-74
2022/05/21 05:28:19;;;;;;;;;;;;;;;23.11;48.89;101083.44;4942004;29;20301;-74
2022/05/21 05:31:04;;;;;;;;;;;;;;;23.07;49.28;101074.28;4950839;28;19914;-75
2022/05/21 05:33:49;;;;;;;;;;;;;;;23.03;49.16;101072.31;4955587;28;19926;-74
2022/05/21 05:36:33;;;;;;;;;;;;;;;23.13;48.57;101075.50;4958977;28;19914;-74
2022/05/21 05:39:18;;;;;;;;;;;;;;;23.20;47.97;101083.84;4948956;28;19918;-74
2022/05/21 05:42:04;;;;;;;;;;;;;;;23.18;47.88;101086.22;4930103;29;20309;-74
2022/05/21 05:44:49;;;;;;;;;;;;;;;23.27;47.79;101079.09;4935398;29;19918;-73
2022/05/21 05:47:34;;;;;;;;;;;;;;;23.30;47.12;101067.25;4933149;29;19918;-73
2022/05/21 05:50:20;;;;;;;;;;;;;;;23.41;46.94;101070.03;4932388;28;20389;-73
2022/05/21 05:53:06;;;;;;;;;;;;;;;23.52;45.92;101076.41;4939563;28;20297;-73
2022/05/21 05:55:51;;;;;;;;;;;;;;;23.37;46.71;101078.34;4939084;28;20301;-74
2022/05/21 06:01:39;;;;;;;;;;;;;;;23.43;46.95;101075.97;4934147;29;20386;-74
2022/05/21 06:04:23;;;;;;;;;;;;;;;23.45;46.99;101079.19;4916228;29;19919;-75
2022/05/21 06:07:12;;;;;;;;;;;;;;;23.45;46.84;101079.19;4927072;29;19914;-74
2022/05/21 06:10:02;;;;;;;;;;;;;;;23.49;46.84;101076.41;4939435;29;19914;-74
2022/05/21 06:12:47;;;;;;;;;;;;;;;23.53;47.07;101078.00;4932498;29;19915;-74
2022/05/21 06:15:31;;;;;;;;;;;;;;;23.64;46.85;101072.47;4924513;29;19989;-74
2022/05/21 06:18:17;;;;;;;;;;;;;;;23.68;46.57;101071.28;4933455;28;20386;-75
2022/05/21 06:21:04;;;;;;;;;;;;;;;23.65;46.54;101066.53;4934694;29;19926;-73
2022/05/21 06:23:49;;;;;;;;;;;;;;;23.81;46.52;101069.72;4924197;29;19915;-76
2022/05/21 06:26:35;;;;;;;;;;;;;;;23.96;45.72;101059.38;4932064;29;19919;-75
2022/05/21 06:29:20;;;;;;;;;;;;;;;23.92;45.94;101060.59;4946339;28;19914;-75
2022/05/21 06:32:05;;;;;;;;;;;;;;;24.00;45.31;101067.72;4932380;29;19915;-75
2022/05/21 06:34:50;;;;;;;;;;;;;;;24.04;45.18;101062.94;4937614;29;19914;-75
2022/05/21 06:37:35;;;;;;;;;;;;;;;24.03;45.54;101072.47;4942844;28;19918;-74
2022/05/21 06:40:20;;;;;;;;;;;;;;;24.03;45.95;101064.91;4939713;28;20297;-74
2022/05/21 06:43:04;;;;;;;;;;;;;;;24.14;45.87;101076.81;4936045;28;19915;-75
2022/05/21 06:45:49;;;;;;;;;;;;;;;24.10;45.74;101070.47;4924005;28;19915;-75
2022/05/21 06:48:33;;;;;;;;;;;;;;;24.14;45.65;101073.25;4928190;29;19919;-75
2022/05/21 06:51:19;;;;;;;;;;;;;;;24.16;45.73;101073.66;4924991;29;20423;-75
2022/05/21 06:54:04;;;;;;;;;;;;;;;24.27;45.63;101063.34;4935351;29;20389;-75
2022/05/21 06:56:48;;;;;;;;;;;;;;;24.28;45.38;101073.25;4952403;29;20300;-74
2022/05/21 06:59:33;;;;;;;;;;;;;;;24.37;45.32;101067.31;4938608;29;19918;-75
2022/05/21 07:02:18;;;;;;;;;;;;;;;24.40;45.38;101069.28;4936880;29;19915;-75
2022/05/21 07:08:17;;;;;;;;;;;;;;;24.42;45.07;101062.13;4942500;29;20373;-75
2022/05/21 07:11:02;;;;;;;;;;;;;;;24.49;45.21;101067.66;4952713;28;19940;-76
2022/05/21 07:13:46;;;;;;;;;;;;;;;24.54;45.00;101081.16;4957482;28;19915;-75
2022/05/21 07:16:31;;;;;;;;;;;;;;;24.58;45.45;101076.38;4956760;28;20370;-75
2022/05/21 07:19:16;;;;;;;;;;;;;;;24.60;45.07;101071.19;4956437;28;19918;-74
2022/05/21 07:22:03;;;;;;;;;;;;;;;24.61;44.76;101070.00;4955807;29;19915;-74
2022/05/21 07:24:48;;;;;;;;;;;;;;;24.68;44.56;101061.66;4918101;29;20302;-74
2022/05/21 07:27:32;;;;;;;;;;;;;;;24.75;44.90;101060.03;4927300;29;19915;-74
2022/05/21 07:30:27;;;;;;;;;;;;;;;24.82;44.95;101066.38;4938688;29;19914;-74
2022/05/21 07:33:13;;;;;;;;;;;;;;;24.86;45.39;101063.56;4937260;29;20399;-74
2022/05/21 07:35:59;;;;;;;;;;;;;;;24.86;45.86;101069.91;4937370;29;19914;-74
2022/05/21 07:38:43;;;;;;;;;;;;;;;24.95;45.18;101066.72;4936832;29;19930;-74
2022/05/21 07:41:28;;;;;;;;;;;;;;;24.97;46.00;101064.34;4953329;28;19914;-74
2022/05/21 07:44:13;;;;;;;;;;;;;;;24.98;45.98;101060.38;4975201;23;19922;-75
2022/05/21 07:46:59;;;;;;;;;;;;;;;25.11;45.16;101069.81;4969069;28;20553;-78
2022/05/21 07:49:45;;;;;;;;;;;;;;;24.95;44.32;101058.38;4929405;29;19919;-75
2022/05/21 07:52:29;;;;;;;;;;;;;;;25.29;43.33;101053.84;4945863;28;19914;-75
2022/05/21 07:55:14;;;;;;;;;;;;;;;25.87;42.24;101064.16;4939461;29;20583;-77
2022/05/21 07:57:59;;;;;;;;;;;;;;;25.37;43.48;101055.38;4939805;29;19919;-79
2022/05/21 08:00:43;;;;;;;;;;;;;;;25.32;43.94;101055.78;4938651;29;19914;-76
2022/05/21 08:03:29;;;;;;;;;;;;;;;26.06;42.31;101056.44;4946062;28;19923;-76
2022/05/21 08:06:13;;;;;;;;;;;;;;;26.49;41.55;101065.97;4931798;29;19915;-75
2022/05/21 08:08:59;;;;;;;;;;;;;;;26.53;40.84;101051.97;4934976;29;20370;-74
2022/05/21 08:11:44;;;;;;;;;;;;;;;26.62;40.98;101049.47;4937572;29;19914;-73
2022/05/21 08:14:29;;;;;;;;;;;;;;;27.05;40.49;101052.56;4945293;29;20296;-74
2022/05/21 08:17:14;;;;;;;;;;;;;;;27.12;40.46;101053.25;4948091;28;19915;-77
2022/05/21 08:19:59;;;;;;;;;;;;;;;27.36;39.68;101047.75;4930777;29;19918;-75
2022/05/21 08:28:50;;;;;;;;;;;;;;;26.29;42.71;101046.28;4937044;29;20389;-74
2022/05/21 08:31:35;;;;;;;;;;;;;;;27.26;40.80;101043.09;4931103;29;20321;-76
2022/05/21 08:34:20;;;;;;;;;;;;;;;27.65;39.68;101040.50;4937112;29;20370;-73
2022/05/21 08:37:05;;;;;;;;;;;;;;;27.57;40.31;101039.06;4937053;29;19914;-74
2022/05/21 08:39:50;;;;;;;;;;;;;;;27.52;40.31;101042.34;4937251;29;19918;-73
2022/05/21 08:42:45;;;;;;;;;;;;;;;27.64;39.56;101033.34;4936861;29;19915;-79
2022/05/21 08:45:56;;;;;;;;;;;;;;;27.86;39.18;101034.56;4937010;29;20306;-72
2022/05/21 08:48:44;;;;;;;;;;;;;;;27.90;39.49;101031.72;4920911;29;19919;-73
2022/05/21 08:51:32;;;;;;;;;;;;;;;27.93;39.50;101028.88;4945178;28;19915;-73
2022/05/21 08:54:21;;;;;;;;;;;;;;;27.88;39.92;101026.56;4928859;29;20377;-73
2022/05/21 08:57:09;;;;;;;;;;;;;;;28.50;38.93;101022.19;4928225;28;19915;-75
2022/05/21 09:00:07;;;;;;;;;;;;;;;28.94;38.04;101032.13;4936749;28;19918;-75
2022/05/21 09:02:54;;;;;;;;;;;;;;;29.52;37.08;101018.38;4929593;29;20289;-72
2022/05/21 09:05:42;;;;;;;;;;;;;;;29.14;37.54;101015.28;4928918;28;19915;-72
2022/05/21 09:08:36;;;;;;;;;;;;;;;28.44;39.04;101007.91;4941015;29;19915;-74
2022/05/21 09:11:41;;;;;;;;;;;;;;;28.37;39.72;101010.88;4934586;28;19914;-74
2022/05/21 09:14:31;;;;;;;;;;;;;;;29.71;37.44;101017.53;4912362;29;19919;-74
2022/05/21 09:17:18;;;;;;;;;;;;;;;32.29;31.81;101011.66;4937243;29;19914;-76
2022/05/21 09:20:04;;;;;;;;;;;;;;;31.05;34.08;101009.38;4933551;29;19919;-75
2022/05/21 09:22:54;;;;;;;;;;;;;;;30.21;35.51;101011.41;4930784;28;19918;-73
2022/05/21 09:25:38;;;;;;;;;;;;;;;29.72;36.74;101000.25;4947866;28;19918;-74
2022/05/21 09:28:23;;;;;;;;;;;;;;;29.47;37.52;101000.06;4928297;28;20387;-76
2022/05/21 09:31:12;;;;;;;;;;;;;;;29.21;38.04;101001.88;4928772;29;19915;-78
2022/05/21 09:34:11;;;;;;;;;;;;;;;29.07;38.21;100995.81;4934102;29;19915;-76
2022/05/21 09:36:57;;;;;;;;;;;;;;;33.32;31.44;101002.13;4929606;29;19915;-80
2022/05/21 09:39:43;;;;;;;;;;;;;;;39.56;22.30;101012.59;4927206;29;20379;-74
2022/05/21 09:45:33;;;;;;;;;;;;;;;45.22;15.99;101023.09;4938768;29;20286;-76
2022/05/21 09:48:22;;;;;;;;;;;;;;;44.55;16.00;101018.47;4935412;28;19915;-76
2022/05/21 09:51:19;;;;;;;;;;;;;;;44.22;16.09;101021.81;4929353;29;19914;-77
2022/05/21 09:54:18;;;;;;;;;;;;;;;44.37;16.02;101010.69;4928695;29;19915;-75
2022/05/21 09:57:04;;;;;;;;;;;;;;;39.34;21.29;100998.22;4916840;29;20405;-78
2022/05/21 10:00:04;;;;;;;;;;;;;;;35.77;25.83;100988.84;4916802;29;20332;-78
2022/05/21 10:02:57;;;;;;;;;;;;;;;34.02;28.43;100980.63;4916780;29;19919;-77
2022/05/21 10:05:47;;;;;;;;;;;;;;;32.76;29.99;100974.94;4918037;29;19920;-76
2022/05/21 10:11:57;;;;;;;;;;;;;;;32.16;31.78;100974.34;4929778;28;19919;-74
2022/05/21 10:14:53;;;;;;;;;;;;;;;31.36;32.63;100963.41;4944180;28;19927;-74
2022/05/21 10:17:42;;;;;;;;;;;;;;;31.08;32.57;100969.19;4929398;28;19919;-75
2022/05/21 10:20:29;;;;;;;;;;;;;;;31.05;34.12;100964.44;4947014;28;20292;-76
2022/05/21 10:23:32;;;;;;;;;;;;;;;30.91;34.20;100963.63;4925639;29;19922;-76
2022/05/21 10:26:29;;;;;;;;;;;;;;;30.65;34.29;100958.44;4927431;29;19919;-76
2022/05/21 10:29:33;;;;;;;;;;;;;;;30.82;34.14;100957.91;4916968;29;20508;-76
2022/05/21 10:32:21;;;;;;;;;;;;;;;30.71;34.68;100957.44;4936316;29;19919;-75
2022/05/21 10:35:22;;;;;;;;;;;;;;;30.65;34.52;100948.00;4941246;28;19919;-75
2022/05/21 10:38:28;;;;;;;;;;;;;;;30.59;35.15;100944.94;4932442;29;19919;-75
2022/05/21 10:41:32;;;;;;;;;;;;;;;30.32;35.20;100936.13;4935868;29;20380;-75
2022/05/21 10:44:30;;;;;;;;;;;;;;;30.29;35.80;100934.19;4950577;28;19919;-75
2022/05/21 10:47:24;;;;;;;;;;;;;;;30.27;35.63;100942.28;4950103;28;20376;-75
2022/05/21 10:50:16;;;;;;;;;;;;;;;30.26;35.33;100934.31;4933947;29;20387;-75
2022/05/21 10:53:15;;;;;;;;;;;;;;;30.21;36.09;100929.25;4923741;29;19919;-76
2022/05/21 10:56:06;;;;;;;;;;;;;;;30.25;35.69;100935.53;4944512;29;19918;-75
2022/05/21 10:59:01;;;;;;;;;;;;;;;30.24;35.90;100931.94;4928068;29;20442;-76
2022/05/21 11:01:55;;;;;;;;;;;;;;;30.14;35.63;100928.22;4914705;29;19923;-77
2022/05/21 11:04:46;;;;;;;;;;;;;;;30.10;36.13;100927.53;4932994;29;19918;-75
2022/05/21 11:07:37;;;;;;;;;;;;;;;30.15;36.00;100926.19;4932649;29;19919;-75
2022/05/21 11:10:25;;;;;;;;;;;;;;;30.20;35.99;100922.06;4939285;29;19918;-76
2022/05/21 11:13:21;;;;;;;;;;;;;;;30.21;35.97;100921.63;4935846;28;19919;-75
2022/05/21 11:16:22;;;;;;;;;;;;;;;30.20;35.97;100908.81;4935543;29;19919;-75
2022/05/21 11:19:27;;;;;;;;;;;;;;;30.28;36.39;100918.59;4925990;29;19923;-75
2022/05/21 11:22:28;;;;;;;;;;;;;;;30.30;36.38;100918.94;4927082;28;20308;-74
2022/05/21 11:25:19;;;;;;;;;;;;;;;30.31;36.06;100906.50;4929552;29;19919;-76
2022/05/21 11:28:17;;;;;;;;;;;;;;;30.31;35.59;100914.91;4928360;29;19919;-76
2022/05/21 11:31:07;;;;;;;;;;;;;;;30.30;36.51;100904.13;4920986;29;19919;-76
2022/05/21 11:40:02;;;;;;;;;;;;;;;30.47;36.36;100889.59;4938918;29;19927;-77
2022/05/21 11:42:50;;;;;;;;;;;;;;;30.41;35.57;100904.59;4926910;29;19919;-77
2022/05/21 11:45:35;;;;;;;;;;;;;;;30.47;35.83;100905.66;4924929;29;20303;-77
2022/05/21 11:48:25;;;;;;;;;;;;;;;30.44;36.68;100896.06;4926451;29;19918;-76
2022/05/21 11:51:22;;;;;;;;;;;;;;;30.44;35.72;100893.25;4925720;29;19919;-77
2022/05/21 11:54:06;;;;;;;;;;;;;;;30.49;35.19;100889.13;4949838;28;19922;-78
2022/05/21 11:57:01;;;;;;;;;;;;;;;30.51;35.18;100879.03;4932860;29;19927;-77
2022/05/21 11:59:51;;;;;;;;;;;;;;;30.62;35.79;100886.34;4929255;28;19923;-77
2022/05/21 12:02:38;;;;;;;;;;;;;;;30.66;35.66;100875.78;4926938;28;19918;-78
2022/05/21 12:05:41;;;;;;;;;;;;;;;30.71;35.64;100866.78;4926690;29;19922;-76
2022/05/21 12:08:27;;;;;;;;;;;;;;;30.83;35.84;100866.00;4940151;28;19919;-79
2022/05/21 12:11:13;;;;;;;;;;;;;;;30.84;35.79;100864.75;4931421;28;19927;-77
2022/05/21 12:14:03;;;;;;;;;;;;;;;30.70;35.47;100863.19;4920039;29;20304;-79
2022/05/21 12:16:49;;;;;;;;;;;;;;;30.68;35.12;100867.69;4926575;29;19918;-77
2022/05/21 12:19:44;;;;;;;;;;;;;;;30.79;35.18;100851.28;4929864;29;19923;-79
2022/05/21 12:22:33;;;;;;;;;;;;;;;30.82;35.00;100856.78;4935707;29;19919;-77
2022/05/21 12:25:37;;;;;;;;;;;;;;;30.80;34.93;100853.63;4936420;29;19923;-79
2022/05/21 12:28:22;;;;;;;;;;;;;;;30.77;35.67;100846.13;4938675;29;19919;-78
2022/05/21 12:31:09;;;;;;;;;;;;;;;30.57;35.77;100851.97;4936904;29;19918;-80
2022/05/21 12:34:13;;;;;;;;;;;;;;;30.59;36.54;100849.50;4936789;29;19919;-78
2022/05/21 12:37:01;;;;;;;;;;;;;;;30.49;35.77;100847.03;4925508;29;19923;-79
2022/05/21 12:39:53;;;;;;;;;;;;;;;30.55;35.60;100842.41;4954619;28;19923;-78
2022/05/21 12:42:39;;;;;;;;;;;;;;;30.49;35.84;100839.38;4939701;29;19918;-78
2022/05/21 12:45:44;;;;;;;;;;;;;;;30.44;36.22;100836.31;4935877;29;19919;-79
2022/05/21 12:48:35;;;;;;;;;;;;;;;30.54;36.05;100830.41;4938455;29;19919;-78
2022/05/21 12:51:26;;;;;;;;;;;;;;;30.47;37.04;100832.66;4938647;29;19919;-78
2022/05/21 12:54:23;;;;;;;;;;;;;;;30.45;36.32;100838.69;4935398;29;19919;-78
2022/05/21 12:57:12;;;;;;;;;;;;;;;30.46;36.51;100833.88;4931503;29;19919;-77
2022/05/21 13:00:01;;;;;;;;;;;;;;;30.41;36.55;100826.78;4948887;28;19922;-79
2022/05/21 13:02:47;;;;;;;;;;;;;;;30.37;36.36;100811.31;4935014;29;19918;-78
2022/05/21 13:05:34;;;;;;;;;;;;;;;30.38;37.16;100807.25;4939524;29;19919;-79
2022/05/21 13:08:19;;;;;;;;;;;;;;;30.38;37.08;100812.84;4937398;29;19923;-79
2022/05/21 13:11:11;;;;;;;;;;;;;;;30.39;36.86;100806.81;4935443;29;19919;-78
2022/05/21 13:13:59;;;;;;;;;;;;;;;30.36;36.91;100807.72;4938928;29;19918;-78
2022/05/21 13:16:52;;;;;;;;;;;;;;;30.38;36.47;100799.59;4935967;29;19918;-78
2022/05/21 13:19:39;;;;;;;;;;;;;;;30.43;36.67;100795.44;4934905;29;19926;-77
2022/05/21 13:22:24;;;;;;;;;;;;;;;30.47;36.31;100794.16;4938525;29;19918;-78
2022/05/21 13:25:12;;;;;;;;;;;;;;;30.56;36.16;100788.63;4936861;29;19919;-78
2022/05/21 13:27:58;;;;;;;;;;;;;;;30.61;36.06;100790.09;4939968;29;19919;-77
2022/05/21 13:30:49;;;;;;;;;;;;;;;30.59;36.25;100786.94;4952378;28;19923;-78
2022/05/21 13:33:35;;;;;;;;;;;;;;;30.61;36.57;100778.06;4950147;28;19918;-78
2022/05/21 13:36:24;;;;;;;;;;;;;;;30.61;36.25;100775.28;4943831;28;19919;-78
2022/05/21 13:39:16;;;;;;;;;;;;;;;30.56;36.16;100777.41;4935806;29;19923;-78
2022/05/21 13:42:09;;;;;;;;;;;;;;;30.59;36.79;100768.06;4935883;29;20372;-78
2022/05/21 13:44:58;;;;;;;;;;;;;;;30.54;36.57;100765.84;4951545;23;19927;-61
2022/05/21 13:47:54;;;;;;;;;;;;;;;30.47;36.78;100770.91;4934706;29;19923;-60
2022/05/21 13:50:42;;;;;;;;;;;;;;;30.44;37.00;100766.16;4935167;29;19919;-61
2022/05/21 13:53:28;;;;;;;;;;;;;;;30.43;37.05;100770.97;4934447;29;19923;-61
2022/05/21 13:56:29;;;;;;;;;;;;;;;30.37;36.83;100757.97;4937880;29;19919;-61
2022/05/21 13:59:19;;;;;;;;;;;;;;;30.35;36.71;100755.63;4926330;29;19923;-61
2022/05/21 14:02:13;;;;;;;;;;;;;;;30.37;36.70;100760.78;4934613;29;20298;-61
2022/05/21 14:04:58;;;;;;;;;;;;;;;30.38;37.03;100756.72;4940027;29;19918;-61
2022/05/21 14:07:48;;;;;;;;;;;;;;;30.33;36.72;100755.28;4934433;29;19918;-62
2022/05/21 14:10:44;;;;;;;;;;;;;;;30.37;36.37;100747.53;4935019;29;19919;-61
2022/05/21 14:13:34;;;;;;;;;;;;;;;30.37;36.76;100752.38;4937055;29;19919;-61
2022/05/21 14:16:21;;;;;;;;;;;;;;;30.32;37.26;100742.50;4934270;29;19922;-61
2022/05/21 14:19:11;;;;;;;;;;;;;;;30.26;36.82;100733.06;4939203;28;19927;-61
2022/05/21 14:22:03;;;;;;;;;;;;;;;30.24;36.82;100738.31;4927331;29;19923;-61
2022/05/21 14:24:48;;;;;;;;;;;;;;;30.26;37.81;100735.09;4934364;29;19918;-61
2022/05/21 14:27:33;;;;;;;;;;;;;;;30.26;36.86;100735.88;4937358;29;19919;-60
2022/05/21 14:30:27;;;;;;;;;;;;;;;30.29;36.79;100726.53;4934332;29;19918;-61
2022/05/21 14:33:15;;;;;;;;;;;;;;;30.28;36.99;100715.75;4934079;29;20302;-61
2022/05/21 14:36:18;;;;;;;;;;;;;;;30.24;37.57;100707.47;4937210;29;19919;-61
2022/05/21 14:39:03;;;;;;;;;;;;;;;30.17;37.52;100708.47;4930894;29;19923;-61
2022/05/21 14:41:49;;;;;;;;;;;;;;;30.13;37.33;100696.59;4943520;28;19918;-62
2022/05/21 14:44:34;;;;;;;;;;;;;;;30.17;37.89;100691.63;4934029;29;19918;-61
2022/05/21 14:53:34;;;;;;;;;;;;;;;30.11;37.92;100685.03;4935477;29;19918;-61
2022/05/21 14:56:22;;;;;;;;;;;;;;;30.13;38.04;100687.38;4933969;29;19919;-61
2022/05/21 14:59:09;;;;;;;;;;;;;;;30.13;37.78;100690.19;4940191;29;19923;-61